sensor_id;sensor_type;location;lat;lon;timestamp;temperature;humidity
8099;DHT22;4092;47.876;9.372;2023-10-13T00:00:27;16.50;99.90
8099;DHT22;4092;47.876;9.372;2023-10-13T00:02:56;16.40;99.90
8099;DHT22;4092;47.876;9.372;2023-10-13T00:05:26;16.40;99.90
8099;DHT22;4092;47.876;9.372;2023-10-13T00:07:53;16.40;99.90
8099;DHT22;4092;47.876;9.372;2023-10-13T00:10:22;16.30;99.90
8099;DHT22;4092;47.876;9.372;2023-10-13T00:12:49;16.30;99.90
8099;DHT22;4092;47.876;9.372;2023-10-13T00:15:17;16.20;99.90
8099;DHT22;4092;47.876;9.372;2023-10-13T00:17:47;16.10;99.90
8099;DHT22;4092;47.876;9.372;2023-10-13T00:20:14;16.00;99.90
8099;DHT22;4092;47.876;9.372;2023-10-13T00:23:01;16.00;99.90
8099;DHT22;4092;47.876;9.372;2023-10-13T00:25:29;15.90;99.90
8099;DHT22;4092;47.876;9.372;2023-10-13T00:28:05;15.90;99.90
8099;DHT22;4092;47.876;9.372;2023-10-13T00:30:34;15.80;99.90
8099;DHT22;4092;47.876;9.372;2023-10-13T00:33:02;15.70;99.90
8099;DHT22;4092;47.876;9.372;2023-10-13T00:35:30;15.70;99.90
8099;DHT22;4092;47.876;9.372;2023-10-13T00:38:02;15.60;99.90
8099;DHT22;4092;47.876;9.372;2023-10-13T00:40:40;15.60;99.90
8099;DHT22;4092;47.876;9.372;2023-10-13T00:43:09;15.60;99.90
8099;DHT22;4092;47.876;9.372;2023-10-13T00:45:55;15.50;99.90
8099;DHT22;4092;47.876;9.372;2023-10-13T00:48:24;15.50;99.90
8099;DHT22;4092;47.876;9.372;2023-10-13T00:50:56;15.40;99.90
8099;DHT22;4092;47.876;9.372;2023-10-13T00:53:25;15.40;99.90
8099;DHT22;4092;47.876;9.372;2023-10-13T00:55:53;15.30;99.90
8099;DHT22;4092;47.876;9.372;2023-10-13T00:58:22;15.30;99.90
8099;DHT22;4092;47.876;9.372;2023-10-13T01:00:50;15.40;99.90
8099;DHT22;4092;47.876;9.372;2023-10-13T01:03:23;15.40;99.90
8099;DHT22;4092;47.876;9.372;2023-10-13T01:05:54;15.40;99.90
8099;DHT22;4092;47.876;9.372;2023-10-13T01:08:33;15.40;99.90
8099;DHT22;4092;47.876;9.372;2023-10-13T01:11:02;15.40;99.90
8099;DHT22;4092;47.876;9.372;2023-10-13T01:13:32;15.30;99.90
8099;DHT22;4092;47.876;9.372;2023-10-13T01:16:02;15.20;99.90
8099;DHT22;4092;47.876;9.372;2023-10-13T01:18:33;15.20;99.90
8099;DHT22;4092;47.876;9.372;2023-10-13T01:21:05;15.10;99.90
8099;DHT22;4092;47.876;9.372;2023-10-13T01:23:34;15.00;99.90
8099;DHT22;4092;47.876;9.372;2023-10-13T01:26:04;15.10;99.90
8099;DHT22;4092;47.876;9.372;2023-10-13T01:28:32;15.10;99.90
8099;DHT22;4092;47.876;9.372;2023-10-13T01:31:10;15.20;99.90
8099;DHT22;4092;47.876;9.372;2023-10-13T01:33:42;15.20;99.90
8099;DHT22;4092;47.876;9.372;2023-10-13T01:36:08;15.10;99.90
8099;DHT22;4092;47.876;9.372;2023-10-13T01:38:39;15.10;99.90
8099;DHT22;4092;47.876;9.372;2023-10-13T01:41:08;15.20;99.90
8099;DHT22;4092;47.876;9.372;2023-10-13T01:43:35;15.20;99.90
8099;DHT22;4092;47.876;9.372;2023-10-13T01:46:01;15.30;99.90
8099;DHT22;4092;47.876;9.372;2023-10-13T01:48:29;15.40;99.90
8099;DHT22;4092;47.876;9.372;2023-10-13T01:50:58;15.50;99.90
8099;DHT22;4092;47.876;9.372;2023-10-13T01:53:29;15.60;99.90
8099;DHT22;4092;47.876;9.372;2023-10-13T01:55:57;15.70;99.90
8099;DHT22;4092;47.876;9.372;2023-10-13T01:58:25;15.80;99.90
8099;DHT22;4092;47.876;9.372;2023-10-13T02:00:54;15.80;99.90
8099;DHT22;4092;47.876;9.372;2023-10-13T02:03:22;15.80;99.90
8099;DHT22;4092;47.876;9.372;2023-10-13T02:05:49;15.80;99.90
8099;DHT22;4092;47.876;9.372;2023-10-13T02:08:19;15.90;99.90
8099;DHT22;4092;47.876;9.372;2023-10-13T02:10:51;15.90;99.90
8099;DHT22;4092;47.876;9.372;2023-10-13T02:13:20;15.90;99.90
8099;DHT22;4092;47.876;9.372;2023-10-13T02:15:48;15.90;99.90
8099;DHT22;4092;47.876;9.372;2023-10-13T02:18:18;15.80;99.90
8099;DHT22;4092;47.876;9.372;2023-10-13T02:20:51;15.80;99.90
8099;DHT22;4092;47.876;9.372;2023-10-13T02:23:21;15.80;99.90
8099;DHT22;4092;47.876;9.372;2023-10-13T02:25:48;15.80;99.90
8099;DHT22;4092;47.876;9.372;2023-10-13T02:28:19;15.80;99.90
8099;DHT22;4092;47.876;9.372;2023-10-13T02:30:53;15.70;99.90
8099;DHT22;4092;47.876;9.372;2023-10-13T02:33:19;15.70;99.90
8099;DHT22;4092;47.876;9.372;2023-10-13T02:35:48;15.70;99.90
8099;DHT22;4092;47.876;9.372;2023-10-13T02:38:20;15.70;99.90
8099;DHT22;4092;47.876;9.372;2023-10-13T02:40:54;15.70;99.90
8099;DHT22;4092;47.876;9.372;2023-10-13T02:43:22;15.60;99.90
8099;DHT22;4092;47.876;9.372;2023-10-13T02:45:53;15.50;99.90
8099;DHT22;4092;47.876;9.372;2023-10-13T02:48:25;15.30;99.90
8099;DHT22;4092;47.876;9.372;2023-10-13T02:50:57;15.20;99.90
8099;DHT22;4092;47.876;9.372;2023-10-13T02:53:28;15.10;99.90
8099;DHT22;4092;47.876;9.372;2023-10-13T02:55:56;14.90;99.90
8099;DHT22;4092;47.876;9.372;2023-10-13T02:58:33;14.80;99.90
8099;DHT22;4092;47.876;9.372;2023-10-13T03:01:06;14.80;99.90
8099;DHT22;4092;47.876;9.372;2023-10-13T03:03:47;14.70;99.90
8099;DHT22;4092;47.876;9.372;2023-10-13T03:06:16;14.60;99.90
8099;DHT22;4092;47.876;9.372;2023-10-13T03:08:44;14.50;99.90
8099;DHT22;4092;47.876;9.372;2023-10-13T03:11:10;14.40;99.90
8099;DHT22;4092;47.876;9.372;2023-10-13T03:13:40;14.40;99.90
8099;DHT22;4092;47.876;9.372;2023-10-13T03:16:16;14.40;99.90
8099;DHT22;4092;47.876;9.372;2023-10-13T03:18:46;14.40;99.90
8099;DHT22;4092;47.876;9.372;2023-10-13T03:21:20;14.40;99.90
8099;DHT22;4092;47.876;9.372;2023-10-13T03:23:55;14.30;99.90
8099;DHT22;4092;47.876;9.372;2023-10-13T03:26:22;14.30;99.90
8099;DHT22;4092;47.876;9.372;2023-10-13T03:28:49;14.30;99.90
8099;DHT22;4092;47.876;9.372;2023-10-13T03:31:20;14.40;99.90
8099;DHT22;4092;47.876;9.372;2023-10-13T03:33:52;14.40;99.90
8099;DHT22;4092;47.876;9.372;2023-10-13T03:36:25;14.40;99.90
8099;DHT22;4092;47.876;9.372;2023-10-13T03:39:12;14.40;99.90
8099;DHT22;4092;47.876;9.372;2023-10-13T03:41:40;14.50;99.90
8099;DHT22;4092;47.876;9.372;2023-10-13T03:44:12;14.50;99.90
8099;DHT22;4092;47.876;9.372;2023-10-13T03:46:43;14.50;99.90
8099;DHT22;4092;47.876;9.372;2023-10-13T03:49:13;14.50;99.90
8099;DHT22;4092;47.876;9.372;2023-10-13T03:51:40;14.60;99.90
8099;DHT22;4092;47.876;9.372;2023-10-13T03:54:08;14.60;99.90
8099;DHT22;4092;47.876;9.372;2023-10-13T03:56:41;14.60;99.90
8099;DHT22;4092;47.876;9.372;2023-10-13T03:59:11;14.70;99.90
8099;DHT22;4092;47.876;9.372;2023-10-13T04:01:45;14.90;99.90
8099;DHT22;4092;47.876;9.372;2023-10-13T04:04:13;15.00;99.90
8099;DHT22;4092;47.876;9.372;2023-10-13T04:06:41;15.10;99.90
8099;DHT22;4092;47.876;9.372;2023-10-13T04:09:21;15.10;99.90
8099;DHT22;4092;47.876;9.372;2023-10-13T04:12:20;15.20;99.90
8099;DHT22;4092;47.876;9.372;2023-10-13T04:15:06;15.20;99.90
8099;DHT22;4092;47.876;9.372;2023-10-13T04:17:43;15.30;99.90
8099;DHT22;4092;47.876;9.372;2023-10-13T04:20:12;15.30;99.90
8099;DHT22;4092;47.876;9.372;2023-10-13T04:22:52;15.40;99.90
8099;DHT22;4092;47.876;9.372;2023-10-13T04:25:36;15.40;99.90
8099;DHT22;4092;47.876;9.372;2023-10-13T04:28:18;15.50;99.90
8099;DHT22;4092;47.876;9.372;2023-10-13T04:31:02;15.40;99.90
8099;DHT22;4092;47.876;9.372;2023-10-13T04:33:37;15.30;99.90
8099;DHT22;4092;47.876;9.372;2023-10-13T04:36:17;15.20;99.90
8099;DHT22;4092;47.876;9.372;2023-10-13T04:39:02;15.20;99.90
8099;DHT22;4092;47.876;9.372;2023-10-13T04:41:36;15.10;99.90
8099;DHT22;4092;47.876;9.372;2023-10-13T04:44:05;15.10;99.90
8099;DHT22;4092;47.876;9.372;2023-10-13T04:46:53;15.00;99.90
8099;DHT22;4092;47.876;9.372;2023-10-13T04:49:34;15.00;99.90
8099;DHT22;4092;47.876;9.372;2023-10-13T04:52:16;15.00;99.90
8099;DHT22;4092;47.876;9.372;2023-10-13T04:55:05;14.90;99.90
8099;DHT22;4092;47.876;9.372;2023-10-13T04:57:59;14.90;99.90
8099;DHT22;4092;47.876;9.372;2023-10-13T05:00:37;14.90;99.90
8099;DHT22;4092;47.876;9.372;2023-10-13T05:03:43;14.90;99.90
8099;DHT22;4092;47.876;9.372;2023-10-13T05:06:28;14.80;99.90
8099;DHT22;4092;47.876;9.372;2023-10-13T05:09:14;14.80;99.90
8099;DHT22;4092;47.876;9.372;2023-10-13T05:11:59;14.70;99.90
8099;DHT22;4092;47.876;9.372;2023-10-13T05:14:43;14.60;99.90
8099;DHT22;4092;47.876;9.372;2023-10-13T05:17:28;14.60;99.90
8099;DHT22;4092;47.876;9.372;2023-10-13T05:20:14;14.50;99.90
8099;DHT22;4092;47.876;9.372;2023-10-13T05:22:59;14.40;99.90
8099;DHT22;4092;47.876;9.372;2023-10-13T05:25:43;14.30;99.90
8099;DHT22;4092;47.876;9.372;2023-10-13T05:28:27;14.30;99.90
8099;DHT22;4092;47.876;9.372;2023-10-13T05:31:12;14.20;99.90
8099;DHT22;4092;47.876;9.372;2023-10-13T05:33:56;14.20;99.90
8099;DHT22;4092;47.876;9.372;2023-10-13T05:36:41;14.20;99.90
8099;DHT22;4092;47.876;9.372;2023-10-13T05:39:26;14.10;99.90
8099;DHT22;4092;47.876;9.372;2023-10-13T05:42:11;14.10;99.90
8099;DHT22;4092;47.876;9.372;2023-10-13T05:44:55;14.10;99.90
8099;DHT22;4092;47.876;9.372;2023-10-13T05:47:49;14.10;99.90
8099;DHT22;4092;47.876;9.372;2023-10-13T05:50:27;14.00;99.90
8099;DHT22;4092;47.876;9.372;2023-10-13T05:53:12;14.00;99.90
8099;DHT22;4092;47.876;9.372;2023-10-13T05:56:00;14.10;99.90
8099;DHT22;4092;47.876;9.372;2023-10-13T05:58:45;14.10;99.90
8099;DHT22;4092;47.876;9.372;2023-10-13T06:01:30;14.10;99.90
8099;DHT22;4092;47.876;9.372;2023-10-13T06:04:14;14.20;99.90
8099;DHT22;4092;47.876;9.372;2023-10-13T06:06:58;14.20;99.90
8099;DHT22;4092;47.876;9.372;2023-10-13T06:09:44;14.30;99.90
8099;DHT22;4092;47.876;9.372;2023-10-13T06:12:28;14.40;99.90
8099;DHT22;4092;47.876;9.372;2023-10-13T06:15:13;14.50;99.90
8099;DHT22;4092;47.876;9.372;2023-10-13T06:17:58;14.50;99.90
8099;DHT22;4092;47.876;9.372;2023-10-13T06:20:43;14.60;99.90
8099;DHT22;4092;47.876;9.372;2023-10-13T06:23:23;14.70;99.90
8099;DHT22;4092;47.876;9.372;2023-10-13T06:26:09;14.80;99.90
8099;DHT22;4092;47.876;9.372;2023-10-13T06:28:55;14.90;99.90
8099;DHT22;4092;47.876;9.372;2023-10-13T06:31:23;15.00;99.90
8099;DHT22;4092;47.876;9.372;2023-10-13T06:33:52;15.10;99.90
8099;DHT22;4092;47.876;9.372;2023-10-13T06:36:21;15.20;99.90
8099;DHT22;4092;47.876;9.372;2023-10-13T06:38:48;15.20;99.90
8099;DHT22;4092;47.876;9.372;2023-10-13T06:41:43;15.30;99.90
8099;DHT22;4092;47.876;9.372;2023-10-13T06:44:12;15.30;99.90
8099;DHT22;4092;47.876;9.372;2023-10-13T06:46:43;15.40;99.90
8099;DHT22;4092;47.876;9.372;2023-10-13T06:49:11;15.50;99.90
8099;DHT22;4092;47.876;9.372;2023-10-13T06:51:39;15.60;99.90
8099;DHT22;4092;47.876;9.372;2023-10-13T06:54:06;15.70;99.90
8099;DHT22;4092;47.876;9.372;2023-10-13T06:56:47;15.80;99.90
8099;DHT22;4092;47.876;9.372;2023-10-13T06:59:18;15.90;99.90
8099;DHT22;4092;47.876;9.372;2023-10-13T07:01:45;15.90;99.90
8099;DHT22;4092;47.876;9.372;2023-10-13T07:04:17;16.00;99.90
8099;DHT22;4092;47.876;9.372;2023-10-13T07:06:44;16.10;99.90
8099;DHT22;4092;47.876;9.372;2023-10-13T07:09:15;16.10;99.90
8099;DHT22;4092;47.876;9.372;2023-10-13T07:12:07;16.30;99.90
8099;DHT22;4092;47.876;9.372;2023-10-13T07:14:46;16.30;99.90
8099;DHT22;4092;47.876;9.372;2023-10-13T07:17:18;16.50;99.90
8099;DHT22;4092;47.876;9.372;2023-10-13T07:19:50;16.60;99.90
8099;DHT22;4092;47.876;9.372;2023-10-13T07:22:22;16.70;99.90
8099;DHT22;4092;47.876;9.372;2023-10-13T07:24:51;16.70;99.90
8099;DHT22;4092;47.876;9.372;2023-10-13T07:27:21;16.70;99.90
8099;DHT22;4092;47.876;9.372;2023-10-13T07:29:51;16.80;99.90
8099;DHT22;4092;47.876;9.372;2023-10-13T07:32:32;16.90;99.90
8099;DHT22;4092;47.876;9.372;2023-10-13T07:34:59;17.00;99.90
8099;DHT22;4092;47.876;9.372;2023-10-13T07:37:37;17.00;99.90
8099;DHT22;4092;47.876;9.372;2023-10-13T07:40:07;17.00;99.90
8099;DHT22;4092;47.876;9.372;2023-10-13T07:42:49;17.10;99.90
8099;DHT22;4092;47.876;9.372;2023-10-13T07:45:16;17.20;99.90
8099;DHT22;4092;47.876;9.372;2023-10-13T07:47:58;17.20;99.90
8099;DHT22;4092;47.876;9.372;2023-10-13T07:50:25;17.30;99.90
8099;DHT22;4092;47.876;9.372;2023-10-13T07:52:52;17.30;99.90
8099;DHT22;4092;47.876;9.372;2023-10-13T07:55:30;17.40;99.90
8099;DHT22;4092;47.876;9.372;2023-10-13T07:58:01;17.50;99.90
8099;DHT22;4092;47.876;9.372;2023-10-13T08:00:33;17.50;99.90
8099;DHT22;4092;47.876;9.372;2023-10-13T08:03:12;17.60;99.90
8099;DHT22;4092;47.876;9.372;2023-10-13T08:05:58;17.70;99.90
8099;DHT22;4092;47.876;9.372;2023-10-13T08:08:30;17.70;99.90
8099;DHT22;4092;47.876;9.372;2023-10-13T08:11:04;17.90;99.90
8099;DHT22;4092;47.876;9.372;2023-10-13T08:13:39;17.90;99.90
8099;DHT22;4092;47.876;9.372;2023-10-13T08:16:12;18.00;99.90
8099;DHT22;4092;47.876;9.372;2023-10-13T08:18:46;18.10;99.90
8099;DHT22;4092;47.876;9.372;2023-10-13T08:21:14;18.20;99.90
8099;DHT22;4092;47.876;9.372;2023-10-13T08:23:45;18.30;99.90
8099;DHT22;4092;47.876;9.372;2023-10-13T08:26:28;18.40;99.90
8099;DHT22;4092;47.876;9.372;2023-10-13T08:29:19;18.50;99.90
8099;DHT22;4092;47.876;9.372;2023-10-13T08:32:11;18.60;99.90
8099;DHT22;4092;47.876;9.372;2023-10-13T08:34:48;18.60;99.90
8099;DHT22;4092;47.876;9.372;2023-10-13T08:37:31;18.70;99.90
8099;DHT22;4092;47.876;9.372;2023-10-13T08:40:12;18.80;99.90
8099;DHT22;4092;47.876;9.372;2023-10-13T08:43:11;18.80;99.90
8099;DHT22;4092;47.876;9.372;2023-10-13T08:45:40;18.80;99.90
8099;DHT22;4092;47.876;9.372;2023-10-13T08:48:25;18.70;99.90
8099;DHT22;4092;47.876;9.372;2023-10-13T08:50:58;18.70;99.90
8099;DHT22;4092;47.876;9.372;2023-10-13T08:53:36;18.70;99.90
8099;DHT22;4092;47.876;9.372;2023-10-13T08:56:12;18.80;99.90
8099;DHT22;4092;47.876;9.372;2023-10-13T08:58:44;18.80;99.90
8099;DHT22;4092;47.876;9.372;2023-10-13T09:01:33;18.70;99.90
8099;DHT22;4092;47.876;9.372;2023-10-13T09:04:12;18.70;99.90
8099;DHT22;4092;47.876;9.372;2023-10-13T09:06:49;18.80;99.90
8099;DHT22;4092;47.876;9.372;2023-10-13T09:09:45;18.80;99.90
8099;DHT22;4092;47.876;9.372;2023-10-13T09:12:26;19.00;99.90
8099;DHT22;4092;47.876;9.372;2023-10-13T09:15:06;19.10;99.90
8099;DHT22;4092;47.876;9.372;2023-10-13T09:17:46;19.30;99.90
8099;DHT22;4092;47.876;9.372;2023-10-13T09:20:18;19.50;99.90
8099;DHT22;4092;47.876;9.372;2023-10-13T09:22:59;19.60;99.90
8099;DHT22;4092;47.876;9.372;2023-10-13T09:25:35;19.70;99.90
8099;DHT22;4092;47.876;9.372;2023-10-13T09:28:10;19.80;99.90
8099;DHT22;4092;47.876;9.372;2023-10-13T09:30:45;19.90;99.90
8099;DHT22;4092;47.876;9.372;2023-10-13T09:33:13;20.00;99.90
8099;DHT22;4092;47.876;9.372;2023-10-13T09:35:46;20.10;99.90
8099;DHT22;4092;47.876;9.372;2023-10-13T09:38:15;20.20;99.90
8099;DHT22;4092;47.876;9.372;2023-10-13T09:40:42;20.30;99.90
8099;DHT22;4092;47.876;9.372;2023-10-13T09:43:16;20.30;99.90
8099;DHT22;4092;47.876;9.372;2023-10-13T09:45:45;20.40;99.90
8099;DHT22;4092;47.876;9.372;2023-10-13T09:48:32;20.50;99.90
8099;DHT22;4092;47.876;9.372;2023-10-13T09:51:01;20.60;99.90
8099;DHT22;4092;47.876;9.372;2023-10-13T09:53:31;20.60;99.90
8099;DHT22;4092;47.876;9.372;2023-10-13T09:56:02;20.70;99.90
8099;DHT22;4092;47.876;9.372;2023-10-13T09:58:42;20.60;99.90
8099;DHT22;4092;47.876;9.372;2023-10-13T10:01:16;20.60;99.90
8099;DHT22;4092;47.876;9.372;2023-10-13T10:03:48;20.70;99.90
8099;DHT22;4092;47.876;9.372;2023-10-13T10:06:23;20.70;99.90
8099;DHT22;4092;47.876;9.372;2023-10-13T10:09:04;20.80;99.90
8099;DHT22;4092;47.876;9.372;2023-10-13T10:11:52;20.90;99.90
8099;DHT22;4092;47.876;9.372;2023-10-13T10:14:39;21.00;99.90
8099;DHT22;4092;47.876;9.372;2023-10-13T10:17:08;21.00;99.90
8099;DHT22;4092;47.876;9.372;2023-10-13T10:19:48;21.00;99.90
8099;DHT22;4092;47.876;9.372;2023-10-13T10:22:26;21.10;99.90
8099;DHT22;4092;47.876;9.372;2023-10-13T10:24:59;21.20;99.90
8099;DHT22;4092;47.876;9.372;2023-10-13T10:27:28;21.20;99.90
8099;DHT22;4092;47.876;9.372;2023-10-13T10:29:56;21.20;99.90
8099;DHT22;4092;47.876;9.372;2023-10-13T10:32:33;21.30;99.90
8099;DHT22;4092;47.876;9.372;2023-10-13T10:35:06;21.30;99.90
8099;DHT22;4092;47.876;9.372;2023-10-13T10:37:41;21.30;99.90
8099;DHT22;4092;47.876;9.372;2023-10-13T10:40:14;21.30;99.90
8099;DHT22;4092;47.876;9.372;2023-10-13T10:42:59;21.30;99.90
8099;DHT22;4092;47.876;9.372;2023-10-13T10:45:35;21.40;99.90
8099;DHT22;4092;47.876;9.372;2023-10-13T10:48:02;21.50;99.90
8099;DHT22;4092;47.876;9.372;2023-10-13T10:50:51;21.50;99.90
8099;DHT22;4092;47.876;9.372;2023-10-13T10:53:20;21.60;99.90
8099;DHT22;4092;47.876;9.372;2023-10-13T10:55:48;21.60;99.90
8099;DHT22;4092;47.876;9.372;2023-10-13T10:58:15;21.80;99.90
8099;DHT22;4092;47.876;9.372;2023-10-13T11:01:04;21.90;99.20
8099;DHT22;4092;47.876;9.372;2023-10-13T11:03:35;22.00;99.90
8099;DHT22;4092;47.876;9.372;2023-10-13T11:06:11;22.10;99.90
8099;DHT22;4092;47.876;9.372;2023-10-13T11:08:43;22.20;98.40
8099;DHT22;4092;47.876;9.372;2023-10-13T11:11:27;22.10;98.10
8099;DHT22;4092;47.876;9.372;2023-10-13T11:13:56;22.00;99.10
8099;DHT22;4092;47.876;9.372;2023-10-13T11:16:45;21.90;99.20
8099;DHT22;4092;47.876;9.372;2023-10-13T11:19:16;21.80;99.30
8099;DHT22;4092;47.876;9.372;2023-10-13T11:21:47;21.90;99.70
8099;DHT22;4092;47.876;9.372;2023-10-13T11:24:14;21.90;99.90
8099;DHT22;4092;47.876;9.372;2023-10-13T11:26:44;22.00;99.90
8099;DHT22;4092;47.876;9.372;2023-10-13T11:29:16;22.20;99.90
8099;DHT22;4092;47.876;9.372;2023-10-13T11:31:46;22.40;99.90
8099;DHT22;4092;47.876;9.372;2023-10-13T11:34:20;22.60;99.90
8099;DHT22;4092;47.876;9.372;2023-10-13T11:36:50;22.80;99.90
8099;DHT22;4092;47.876;9.372;2023-10-13T11:39:17;22.90;98.20
8099;DHT22;4092;47.876;9.372;2023-10-13T11:41:49;23.00;97.20
8099;DHT22;4092;47.876;9.372;2023-10-13T11:44:21;23.10;97.50
8099;DHT22;4092;47.876;9.372;2023-10-13T11:46:56;23.20;96.80
8099;DHT22;4092;47.876;9.372;2023-10-13T11:49:33;23.30;96.20
8099;DHT22;4092;47.876;9.372;2023-10-13T11:52:04;23.40;94.80
8099;DHT22;4092;47.876;9.372;2023-10-13T11:54:43;23.40;94.40
8099;DHT22;4092;47.876;9.372;2023-10-13T11:57:09;23.50;94.50
8099;DHT22;4092;47.876;9.372;2023-10-13T11:59:37;23.60;95.70
8099;DHT22;4092;47.876;9.372;2023-10-13T12:02:12;23.70;95.60
8099;DHT22;4092;47.876;9.372;2023-10-13T12:04:56;23.80;93.10
8099;DHT22;4092;47.876;9.372;2023-10-13T12:07:26;23.80;93.00
8099;DHT22;4092;47.876;9.372;2023-10-13T12:10:10;23.80;92.70
8099;DHT22;4092;47.876;9.372;2023-10-13T12:12:46;23.90;91.10
8099;DHT22;4092;47.876;9.372;2023-10-13T12:15:19;23.90;91.40
8099;DHT22;4092;47.876;9.372;2023-10-13T12:17:59;23.90;92.50
8099;DHT22;4092;47.876;9.372;2023-10-13T12:20:29;23.90;93.00
8099;DHT22;4092;47.876;9.372;2023-10-13T12:23:04;23.90;92.70
8099;DHT22;4092;47.876;9.372;2023-10-13T12:25:41;24.10;93.50
8099;DHT22;4092;47.876;9.372;2023-10-13T12:28:32;24.20;92.70
8099;DHT22;4092;47.876;9.372;2023-10-13T12:31:06;24.20;92.20
8099;DHT22;4092;47.876;9.372;2023-10-13T12:33:37;24.20;93.40
8099;DHT22;4092;47.876;9.372;2023-10-13T12:36:06;24.10;92.50
8099;DHT22;4092;47.876;9.372;2023-10-13T12:38:37;24.10;91.60
8099;DHT22;4092;47.876;9.372;2023-10-13T12:41:17;24.10;92.10
8099;DHT22;4092;47.876;9.372;2023-10-13T12:44:03;24.00;91.50
8099;DHT22;4092;47.876;9.372;2023-10-13T12:46:47;23.90;91.40
8099;DHT22;4092;47.876;9.372;2023-10-13T12:49:33;23.90;91.80
8099;DHT22;4092;47.876;9.372;2023-10-13T12:52:15;24.10;93.50
8099;DHT22;4092;47.876;9.372;2023-10-13T12:54:46;24.10;92.80
8099;DHT22;4092;47.876;9.372;2023-10-13T12:57:24;24.10;91.50
8099;DHT22;4092;47.876;9.372;2023-10-13T12:59:51;24.10;92.10
8099;DHT22;4092;47.876;9.372;2023-10-13T13:02:19;24.10;92.00
8099;DHT22;4092;47.876;9.372;2023-10-13T13:04:46;24.20;92.10
8099;DHT22;4092;47.876;9.372;2023-10-13T13:07:16;24.30;92.90
8099;DHT22;4092;47.876;9.372;2023-10-13T13:09:43;24.40;92.50
8099;DHT22;4092;47.876;9.372;2023-10-13T13:12:12;24.60;94.00
8099;DHT22;4092;47.876;9.372;2023-10-13T13:14:39;24.80;92.50
8099;DHT22;4092;47.876;9.372;2023-10-13T13:17:11;24.90;91.90
8099;DHT22;4092;47.876;9.372;2023-10-13T13:19:38;24.90;92.70
8099;DHT22;4092;47.876;9.372;2023-10-13T13:22:07;25.00;92.60
8099;DHT22;4092;47.876;9.372;2023-10-13T13:24:38;25.20;92.60
8099;DHT22;4092;47.876;9.372;2023-10-13T13:27:09;25.30;92.10
8099;DHT22;4092;47.876;9.372;2023-10-13T13:29:41;25.30;92.00
8099;DHT22;4092;47.876;9.372;2023-10-13T13:32:08;25.30;91.20
8099;DHT22;4092;47.876;9.372;2023-10-13T13:34:44;25.30;91.80
8099;DHT22;4092;47.876;9.372;2023-10-13T13:37:19;25.30;92.30
8099;DHT22;4092;47.876;9.372;2023-10-13T13:39:46;25.50;92.00
8099;DHT22;4092;47.876;9.372;2023-10-13T13:42:13;25.60;91.90
8099;DHT22;4092;47.876;9.372;2023-10-13T13:44:45;25.60;91.50
8099;DHT22;4092;47.876;9.372;2023-10-13T13:47:13;25.60;91.90
8099;DHT22;4092;47.876;9.372;2023-10-13T13:49:40;25.70;91.80
8099;DHT22;4092;47.876;9.372;2023-10-13T13:52:12;25.70;91.50
8099;DHT22;4092;47.876;9.372;2023-10-13T13:54:43;25.70;91.50
8099;DHT22;4092;47.876;9.372;2023-10-13T13:57:10;25.80;92.20
8099;DHT22;4092;47.876;9.372;2023-10-13T13:59:39;25.70;91.30
8099;DHT22;4092;47.876;9.372;2023-10-13T14:02:11;25.60;91.50
8099;DHT22;4092;47.876;9.372;2023-10-13T14:04:46;25.60;91.90
8099;DHT22;4092;47.876;9.372;2023-10-13T14:07:16;25.70;93.50
8099;DHT22;4092;47.876;9.372;2023-10-13T14:09:45;25.80;91.40
8099;DHT22;4092;47.876;9.372;2023-10-13T14:12:17;25.60;91.50
8099;DHT22;4092;47.876;9.372;2023-10-13T14:14:55;25.50;91.40
8099;DHT22;4092;47.876;9.372;2023-10-13T14:17:24;25.50;91.40
8099;DHT22;4092;47.876;9.372;2023-10-13T14:19:55;25.60;90.90
8099;DHT22;4092;47.876;9.372;2023-10-13T14:22:22;25.50;90.80
8099;DHT22;4092;47.876;9.372;2023-10-13T14:24:51;25.60;90.80
8099;DHT22;4092;47.876;9.372;2023-10-13T14:27:21;25.80;90.90
8099;DHT22;4092;47.876;9.372;2023-10-13T14:29:51;26.00;90.60
8099;DHT22;4092;47.876;9.372;2023-10-13T14:32:20;26.30;91.00
8099;DHT22;4092;47.876;9.372;2023-10-13T14:34:51;26.50;90.50
8099;DHT22;4092;47.876;9.372;2023-10-13T14:37:22;26.60;90.20
8099;DHT22;4092;47.876;9.372;2023-10-13T14:39:54;26.80;90.40
8099;DHT22;4092;47.876;9.372;2023-10-13T14:42:23;26.90;90.30
8099;DHT22;4092;47.876;9.372;2023-10-13T14:44:50;26.90;88.90
8099;DHT22;4092;47.876;9.372;2023-10-13T14:47:21;26.70;90.00
8099;DHT22;4092;47.876;9.372;2023-10-13T14:49:52;26.80;90.00
8099;DHT22;4092;47.876;9.372;2023-10-13T14:52:21;26.60;88.00
8099;DHT22;4092;47.876;9.372;2023-10-13T14:54:48;26.60;88.90
8099;DHT22;4092;47.876;9.372;2023-10-13T14:57:20;26.40;88.70
8099;DHT22;4092;47.876;9.372;2023-10-13T14:59:51;26.30;89.40
8099;DHT22;4092;47.876;9.372;2023-10-13T15:02:18;26.50;90.50
8099;DHT22;4092;47.876;9.372;2023-10-13T15:04:46;26.50;89.30
8099;DHT22;4092;47.876;9.372;2023-10-13T15:07:15;26.50;88.40
8099;DHT22;4092;47.876;9.372;2023-10-13T15:09:43;26.80;88.60
8099;DHT22;4092;47.876;9.372;2023-10-13T15:12:10;27.00;89.10
8099;DHT22;4092;47.876;9.372;2023-10-13T15:14:38;27.20;87.00
8099;DHT22;4092;47.876;9.372;2023-10-13T15:17:05;27.50;85.30
8099;DHT22;4092;47.876;9.372;2023-10-13T15:19:32;27.80;84.50
8099;DHT22;4092;47.876;9.372;2023-10-13T15:22:02;28.00;85.40
8099;DHT22;4092;47.876;9.372;2023-10-13T15:24:33;28.40;85.90
8099;DHT22;4092;47.876;9.372;2023-10-13T15:27:08;28.80;86.80
8099;DHT22;4092;47.876;9.372;2023-10-13T15:29:35;29.20;84.20
8099;DHT22;4092;47.876;9.372;2023-10-13T15:32:03;29.50;84.50
8099;DHT22;4092;47.876;9.372;2023-10-13T15:34:46;29.80;84.30
8099;DHT22;4092;47.876;9.372;2023-10-13T15:37:14;30.10;81.40
8099;DHT22;4092;47.876;9.372;2023-10-13T15:39:42;30.30;81.20
8099;DHT22;4092;47.876;9.372;2023-10-13T15:42:09;30.30;80.20
8099;DHT22;4092;47.876;9.372;2023-10-13T15:44:36;30.30;81.10
8099;DHT22;4092;47.876;9.372;2023-10-13T15:47:03;30.20;80.50
8099;DHT22;4092;47.876;9.372;2023-10-13T15:49:30;29.90;80.40
8099;DHT22;4092;47.876;9.372;2023-10-13T15:51:59;29.40;80.50
8099;DHT22;4092;47.876;9.372;2023-10-13T15:54:26;28.50;81.50
8099;DHT22;4092;47.876;9.372;2023-10-13T15:56:54;27.50;84.20
8099;DHT22;4092;47.876;9.372;2023-10-13T15:59:21;26.40;85.80
8099;DHT22;4092;47.876;9.372;2023-10-13T16:01:50;25.60;87.10
8099;DHT22;4092;47.876;9.372;2023-10-13T16:04:22;24.90;87.70
8099;DHT22;4092;47.876;9.372;2023-10-13T16:06:49;24.20;88.80
8099;DHT22;4092;47.876;9.372;2023-10-13T16:09:16;23.70;88.00
8099;DHT22;4092;47.876;9.372;2023-10-13T16:11:48;23.30;88.70
8099;DHT22;4092;47.876;9.372;2023-10-13T16:14:17;22.90;89.10
8099;DHT22;4092;47.876;9.372;2023-10-13T16:16:45;22.60;88.90
8099;DHT22;4092;47.876;9.372;2023-10-13T16:19:13;22.40;89.30
8099;DHT22;4092;47.876;9.372;2023-10-13T16:21:43;22.20;90.00
8099;DHT22;4092;47.876;9.372;2023-10-13T16:24:11;22.00;89.70
8099;DHT22;4092;47.876;9.372;2023-10-13T16:26:43;21.80;89.70
8099;DHT22;4092;47.876;9.372;2023-10-13T16:29:10;21.60;90.30
8099;DHT22;4092;47.876;9.372;2023-10-13T16:31:41;21.40;90.40
8099;DHT22;4092;47.876;9.372;2023-10-13T16:34:11;21.30;90.80
8099;DHT22;4092;47.876;9.372;2023-10-13T16:36:38;21.10;90.70
8099;DHT22;4092;47.876;9.372;2023-10-13T16:39:09;21.00;91.00
8099;DHT22;4092;47.876;9.372;2023-10-13T16:41:35;20.80;91.30
8099;DHT22;4092;47.876;9.372;2023-10-13T16:44:03;20.70;90.60